Paoli, Oklahoma
Current Conditions -  °F | °C
As of 7:15 AM on Saturday 22 Nov 2014 (Local Time) from KPVJ Reporting Station
Thunderstorm Thunderstorm  
Wind Chill: 58°   Ceiling: 400
Heat Index: 58°   Visibility: 2.5mi
Dew Point: 57°   Wind: 3mph
Humidity: 97%   Direction: 80°E
Pressure: 30.05"   Gusts: NA
Location:  34.83°N, 97.26°W
Report Text: KPVJ 221315Z AUTO 08003KT 2 1/2SM +TSRA OVC004 15/14 A3005 RMK AO2 VIS 1V5 LTG DSNT ALQS P0018 T01450140
Loading
Personal Weather Stations






























Interactive Weather Map New forecast layout! Learn more

10-Day Weather Forecast

Advertisements
Track Severe Weather on mobile